sensor_id;sensor_type;location;lat;lon;timestamp;pressure;altitude;pressure_sealevel;temperature;humidity
10618;BME280;5356;43.526;26.534;2023-01-27T00:00:17;98539.44;;;7.80;100.00
10618;BME280;5356;43.526;26.534;2023-01-27T00:02:43;98541.06;;;7.81;100.00
10618;BME280;5356;43.526;26.534;2023-01-27T00:05:10;98536.16;;;7.85;100.00
10618;BME280;5356;43.526;26.534;2023-01-27T00:07:36;98528.28;;;7.72;100.00
10618;BME280;5356;43.526;26.534;2023-01-27T00:10:02;98531.31;;;7.75;100.00
10618;BME280;5356;43.526;26.534;2023-01-27T00:12:28;98523.38;;;7.75;100.00
10618;BME280;5356;43.526;26.534;2023-01-27T00:15:14;98502.38;;;7.74;100.00
10618;BME280;5356;43.526;26.534;2023-01-27T00:17:39;98491.25;;;7.65;100.00
10618;BME280;5356;43.526;26.534;2023-01-27T00:20:06;98472.97;;;7.57;100.00
10618;BME280;5356;43.526;26.534;2023-01-27T00:22:32;98465.63;;;7.59;100.00
10618;BME280;5356;43.526;26.534;2023-01-27T00:25:16;98473.13;;;7.62;100.00
10618;BME280;5356;43.526;26.534;2023-01-27T00:27:42;98480.06;;;7.63;100.00
10618;BME280;5356;43.526;26.534;2023-01-27T00:30:09;98475.72;;;7.69;100.00
10618;BME280;5356;43.526;26.534;2023-01-27T00:32:35;98475.06;;;7.73;100.00
10618;BME280;5356;43.526;26.534;2023-01-27T00:35:19;98469.25;;;7.64;100.00
10618;BME280;5356;43.526;26.534;2023-01-27T00:37:45;98466.00;;;7.62;100.00
10618;BME280;5356;43.526;26.534;2023-01-27T00:40:13;98459.94;;;7.55;100.00
10618;BME280;5356;43.526;26.534;2023-01-27T00:42:39;98463.78;;;7.59;100.00
10618;BME280;5356;43.526;26.534;2023-01-27T00:45:05;98467.56;;;7.70;100.00
10618;BME280;5356;43.526;26.534;2023-01-27T00:48:10;98490.59;;;7.70;100.00
10618;BME280;5356;43.526;26.534;2023-01-27T00:50:35;98490.31;;;7.78;100.00
10618;BME280;5356;43.526;26.534;2023-01-27T00:53:00;98498.78;;;7.68;100.00
10618;BME280;5356;43.526;26.534;2023-01-27T00:55:26;98492.38;;;7.76;100.00
10618;BME280;5356;43.526;26.534;2023-01-27T00:57:52;98486.03;;;7.77;100.00
10618;BME280;5356;43.526;26.534;2023-01-27T01:00:17;98482.19;;;7.73;100.00
10618;BME280;5356;43.526;26.534;2023-01-27T01:02:43;98487.13;;;7.69;100.00
10618;BME280;5356;43.526;26.534;2023-01-27T01:05:08;98477.13;;;7.71;100.00
10618;BME280;5356;43.526;26.534;2023-01-27T01:07:34;98471.66;;;7.66;100.00
10618;BME280;5356;43.526;26.534;2023-01-27T01:09:59;98470.41;;;7.69;100.00
10618;BME280;5356;43.526;26.534;2023-01-27T01:12:25;98464.91;;;7.70;100.00
10618;BME280;5356;43.526;26.534;2023-01-27T01:14:50;98459.88;;;7.62;100.00
10618;BME280;5356;43.526;26.534;2023-01-27T01:17:15;98456.97;;;7.70;100.00
10618;BME280;5356;43.526;26.534;2023-01-27T01:19:41;98448.41;;;7.68;100.00
10618;BME280;5356;43.526;26.534;2023-01-27T01:22:06;98452.50;;;7.64;100.00
10618;BME280;5356;43.526;26.534;2023-01-27T01:24:32;98455.47;;;7.56;100.00
10618;BME280;5356;43.526;26.534;2023-01-27T01:26:57;98463.09;;;7.64;100.00
10618;BME280;5356;43.526;26.534;2023-01-27T01:29:23;98457.38;;;7.67;100.00
10618;BME280;5356;43.526;26.534;2023-01-27T01:31:51;98454.88;;;7.72;100.00
10618;BME280;5356;43.526;26.534;2023-01-27T01:34:17;98449.97;;;7.76;100.00
10618;BME280;5356;43.526;26.534;2023-01-27T01:36:42;98454.31;;;7.70;100.00
10618;BME280;5356;43.526;26.534;2023-01-27T01:39:08;98448.78;;;7.72;100.00
10618;BME280;5356;43.526;26.534;2023-01-27T01:41:33;98454.31;;;7.70;100.00
10618;BME280;5356;43.526;26.534;2023-01-27T01:44:18;98444.78;;;7.62;100.00
10618;BME280;5356;43.526;26.534;2023-01-27T01:46:43;98439.94;;;7.59;100.00
10618;BME280;5356;43.526;26.534;2023-01-27T01:49:08;98439.13;;;7.59;100.00
10618;BME280;5356;43.526;26.534;2023-01-27T01:51:42;98439.69;;;7.61;100.00
10618;BME280;5356;43.526;26.534;2023-01-27T01:54:17;98434.91;;;7.51;100.00
10618;BME280;5356;43.526;26.534;2023-01-27T01:56:55;98435.28;;;7.55;100.00
10618;BME280;5356;43.526;26.534;2023-01-27T02:01:49;98442.56;;;7.59;100.00
10618;BME280;5356;43.526;26.534;2023-01-27T02:04:20;98440.28;;;7.63;100.00
10618;BME280;5356;43.526;26.534;2023-01-27T02:07:01;98442.50;;;7.66;100.00
10618;BME280;5356;43.526;26.534;2023-01-27T02:09:28;98440.44;;;7.68;100.00
10618;BME280;5356;43.526;26.534;2023-01-27T02:11:56;98425.56;;;7.67;100.00
10618;BME280;5356;43.526;26.534;2023-01-27T02:14:22;98430.50;;;7.63;100.00
10618;BME280;5356;43.526;26.534;2023-01-27T02:16:48;98421.53;;;7.64;100.00
10618;BME280;5356;43.526;26.534;2023-01-27T02:19:21;98424.22;;;7.58;100.00
10618;BME280;5356;43.526;26.534;2023-01-27T02:21:51;98415.41;;;7.64;100.00
10618;BME280;5356;43.526;26.534;2023-01-27T02:24:21;98409.22;;;7.52;100.00
10618;BME280;5356;43.526;26.534;2023-01-27T02:26:50;98406.13;;;7.55;100.00
10618;BME280;5356;43.526;26.534;2023-01-27T02:29:15;98405.31;;;7.54;100.00
10618;BME280;5356;43.526;26.534;2023-01-27T02:31:41;98406.28;;;7.60;100.00
10618;BME280;5356;43.526;26.534;2023-01-27T02:34:09;98403.25;;;7.56;100.00
10618;BME280;5356;43.526;26.534;2023-01-27T02:36:40;98405.22;;;7.61;100.00
10618;BME280;5356;43.526;26.534;2023-01-27T02:39:10;98403.19;;;7.63;100.00
10618;BME280;5356;43.526;26.534;2023-01-27T02:41:48;98403.34;;;7.68;100.00
10618;BME280;5356;43.526;26.534;2023-01-27T02:44:14;98395.75;;;7.72;100.00
10618;BME280;5356;43.526;26.534;2023-01-27T02:46:40;98397.75;;;7.76;100.00
10618;BME280;5356;43.526;26.534;2023-01-27T02:49:05;98377.34;;;7.77;100.00
10618;BME280;5356;43.526;26.534;2023-01-27T02:51:31;98383.00;;;7.80;100.00
10618;BME280;5356;43.526;26.534;2023-01-27T02:53:56;98376.59;;;7.70;100.00
10618;BME280;5356;43.526;26.534;2023-01-27T02:56:22;98381.09;;;7.69;100.00
10618;BME280;5356;43.526;26.534;2023-01-27T02:58:47;98385.16;;;7.72;100.00
10618;BME280;5356;43.526;26.534;2023-01-27T03:01:13;98383.59;;;7.82;100.00
10618;BME280;5356;43.526;26.534;2023-01-27T03:03:39;98376.47;;;7.83;100.00
10618;BME280;5356;43.526;26.534;2023-01-27T03:06:14;98374.47;;;7.78;100.00
10618;BME280;5356;43.526;26.534;2023-01-27T03:08:40;98385.75;;;7.74;100.00
10618;BME280;5356;43.526;26.534;2023-01-27T03:11:06;98388.03;;;7.70;100.00
10618;BME280;5356;43.526;26.534;2023-01-27T03:13:32;98392.44;;;7.76;100.00
10618;BME280;5356;43.526;26.534;2023-01-27T03:15:58;98387.44;;;7.68;100.00
10618;BME280;5356;43.526;26.534;2023-01-27T03:18:43;98373.66;;;7.78;100.00
10618;BME280;5356;43.526;26.534;2023-01-27T03:21:12;98373.59;;;7.84;100.00
10618;BME280;5356;43.526;26.534;2023-01-27T03:23:37;98370.00;;;7.79;100.00
10618;BME280;5356;43.526;26.534;2023-01-27T03:26:08;98383.75;;;7.87;100.00
10618;BME280;5356;43.526;26.534;2023-01-27T03:28:34;98385.16;;;7.90;100.00
10618;BME280;5356;43.526;26.534;2023-01-27T03:31:07;98406.59;;;7.88;100.00
10618;BME280;5356;43.526;26.534;2023-01-27T03:33:34;98404.28;;;7.92;100.00
10618;BME280;5356;43.526;26.534;2023-01-27T03:36:01;98395.09;;;7.95;100.00
10618;BME280;5356;43.526;26.534;2023-01-27T03:38:46;98380.88;;;7.89;100.00
10618;BME280;5356;43.526;26.534;2023-01-27T03:41:30;98370.06;;;7.91;100.00
10618;BME280;5356;43.526;26.534;2023-01-27T03:44:14;98377.72;;;7.80;100.00
10618;BME280;5356;43.526;26.534;2023-01-27T03:46:58;98384.56;;;7.88;100.00
10618;BME280;5356;43.526;26.534;2023-01-27T03:49:23;98373.59;;;7.84;100.00
10618;BME280;5356;43.526;26.534;2023-01-27T03:51:48;98356.28;;;7.82;100.00
10618;BME280;5356;43.526;26.534;2023-01-27T03:54:14;98341.03;;;7.77;100.00
10618;BME280;5356;43.526;26.534;2023-01-27T03:56:40;98348.84;;;7.72;100.00
10618;BME280;5356;43.526;26.534;2023-01-27T03:59:05;98327.28;;;7.69;100.00
10618;BME280;5356;43.526;26.534;2023-01-27T04:01:30;98334.13;;;7.58;100.00
10618;BME280;5356;43.526;26.534;2023-01-27T04:03:56;98333.75;;;7.54;100.00
10618;BME280;5356;43.526;26.534;2023-01-27T04:06:41;98324.31;;;7.58;100.00
10618;BME280;5356;43.526;26.534;2023-01-27T04:11:55;98329.72;;;7.70;100.00
10618;BME280;5356;43.526;26.534;2023-01-27T04:14:37;98345.84;;;7.69;100.00
10618;BME280;5356;43.526;26.534;2023-01-27T04:17:06;98351.72;;;7.71;100.00
10618;BME280;5356;43.526;26.534;2023-01-27T04:19:32;98358.88;;;7.70;100.00
10618;BME280;5356;43.526;26.534;2023-01-27T04:21:58;98361.19;;;7.78;100.00
10618;BME280;5356;43.526;26.534;2023-01-27T04:24:24;98359.00;;;7.75;100.00
10618;BME280;5356;43.526;26.534;2023-01-27T04:27:04;98361.81;;;7.80;100.00
10618;BME280;5356;43.526;26.534;2023-01-27T04:29:38;98355.91;;;7.78;100.00
10618;BME280;5356;43.526;26.534;2023-01-27T04:32:08;98356.19;;;7.88;100.00
10618;BME280;5356;43.526;26.534;2023-01-27T04:34:34;98343.75;;;7.89;100.00
10618;BME280;5356;43.526;26.534;2023-01-27T04:37:00;98345.44;;;7.83;100.00
10618;BME280;5356;43.526;26.534;2023-01-27T04:39:28;98342.34;;;7.86;100.00
10618;BME280;5356;43.526;26.534;2023-01-27T04:41:55;98340.38;;;7.82;100.00
10618;BME280;5356;43.526;26.534;2023-01-27T04:44:21;98334.13;;;7.76;100.00
10618;BME280;5356;43.526;26.534;2023-01-27T04:46:47;98338.03;;;7.74;100.00
10618;BME280;5356;43.526;26.534;2023-01-27T04:49:13;98343.97;;;7.69;100.00
10618;BME280;5356;43.526;26.534;2023-01-27T04:51:39;98338.63;;;7.76;100.00
10618;BME280;5356;43.526;26.534;2023-01-27T04:54:04;98352.69;;;7.76;100.00
10618;BME280;5356;43.526;26.534;2023-01-27T04:56:33;98347.09;;;7.84;100.00
10618;BME280;5356;43.526;26.534;2023-01-27T04:59:01;98343.09;;;7.94;100.00
10618;BME280;5356;43.526;26.534;2023-01-27T05:01:27;98347.50;;;8.00;100.00
10618;BME280;5356;43.526;26.534;2023-01-27T05:03:53;98342.19;;;8.00;100.00
10618;BME280;5356;43.526;26.534;2023-01-27T05:06:20;98344.25;;;7.98;100.00
10618;BME280;5356;43.526;26.534;2023-01-27T05:08:46;98350.59;;;7.97;100.00
10618;BME280;5356;43.526;26.534;2023-01-27T05:11:11;98340.19;;;7.95;100.00
10618;BME280;5356;43.526;26.534;2023-01-27T05:13:38;98340.44;;;7.94;100.00
10618;BME280;5356;43.526;26.534;2023-01-27T05:16:20;98343.69;;;7.96;100.00
10618;BME280;5356;43.526;26.534;2023-01-27T05:18:49;98346.34;;;7.96;100.00
10618;BME280;5356;43.526;26.534;2023-01-27T05:21:18;98342.03;;;7.95;100.00
10618;BME280;5356;43.526;26.534;2023-01-27T05:23:44;98341.25;;;7.94;100.00
10618;BME280;5356;43.526;26.534;2023-01-27T05:26:18;98334.47;;;7.98;100.00
10618;BME280;5356;43.526;26.534;2023-01-27T05:28:45;98338.38;;;7.96;100.00
10618;BME280;5356;43.526;26.534;2023-01-27T05:31:16;98326.44;;;7.86;100.00
10618;BME280;5356;43.526;26.534;2023-01-27T05:33:47;98321.72;;;7.88;100.00
10618;BME280;5356;43.526;26.534;2023-01-27T05:36:15;98321.38;;;7.85;100.00
10618;BME280;5356;43.526;26.534;2023-01-27T05:38:41;98316.44;;;7.88;100.00
10618;BME280;5356;43.526;26.534;2023-01-27T05:41:09;98306.47;;;7.84;100.00
10618;BME280;5356;43.526;26.534;2023-01-27T05:43:37;98312.47;;;7.79;100.00
10618;BME280;5356;43.526;26.534;2023-01-27T05:46:13;98321.44;;;7.78;100.00
10618;BME280;5356;43.526;26.534;2023-01-27T05:48:41;98331.19;;;7.84;100.00
10618;BME280;5356;43.526;26.534;2023-01-27T05:51:08;98340.44;;;7.94;100.00
10618;BME280;5356;43.526;26.534;2023-01-27T05:53:34;98343.69;;;7.96;100.00
10618;BME280;5356;43.526;26.534;2023-01-27T05:56:00;98345.16;;;7.92;100.00
10618;BME280;5356;43.526;26.534;2023-01-27T05:58:26;98339.50;;;7.88;100.00
10618;BME280;5356;43.526;26.534;2023-01-27T06:00:52;98351.13;;;7.87;100.00
10618;BME280;5356;43.526;26.534;2023-01-27T06:03:18;98347.88;;;7.85;100.00
10618;BME280;5356;43.526;26.534;2023-01-27T06:05:55;98347.88;;;7.85;100.00
10618;BME280;5356;43.526;26.534;2023-01-27T06:08:22;98340.94;;;7.84;100.00
10618;BME280;5356;43.526;26.534;2023-01-27T06:10:48;98344.44;;;7.84;100.00
10618;BME280;5356;43.526;26.534;2023-01-27T06:13:14;98343.75;;;7.89;100.00
10618;BME280;5356;43.526;26.534;2023-01-27T06:15:44;98334.13;;;8.06;100.00
10618;BME280;5356;43.526;26.534;2023-01-27T06:18:11;98339.53;;;8.00;100.00
10618;BME280;5356;43.526;26.534;2023-01-27T06:20:37;98349.34;;;7.99;100.00
10618;BME280;5356;43.526;26.534;2023-01-27T06:23:03;98334.09;;;7.95;100.00
10618;BME280;5356;43.526;26.534;2023-01-27T06:25:29;98348.41;;;7.94;100.00
10618;BME280;5356;43.526;26.534;2023-01-27T06:27:58;98334.31;;;7.93;100.00
10618;BME280;5356;43.526;26.534;2023-01-27T06:30:23;98340.00;;;7.97;100.00
10618;BME280;5356;43.526;26.534;2023-01-27T06:32:49;98341.47;;;7.93;100.00
10618;BME280;5356;43.526;26.534;2023-01-27T06:35:14;98340.72;;;8.04;100.00
10618;BME280;5356;43.526;26.534;2023-01-27T06:37:40;98335.41;;;8.04;100.00
10618;BME280;5356;43.526;26.534;2023-01-27T06:40:05;98333.78;;;8.03;100.00
10618;BME280;5356;43.526;26.534;2023-01-27T06:42:31;98334.81;;;8.02;100.00
10618;BME280;5356;43.526;26.534;2023-01-27T06:44:56;98323.97;;;8.03;100.00
10618;BME280;5356;43.526;26.534;2023-01-27T06:47:22;98316.53;;;8.12;100.00
10618;BME280;5356;43.526;26.534;2023-01-27T06:49:47;98314.09;;;8.10;100.00
10618;BME280;5356;43.526;26.534;2023-01-27T06:52:12;98309.97;;;8.15;100.00
10618;BME280;5356;43.526;26.534;2023-01-27T06:54:38;98309.16;;;8.14;100.00
10618;BME280;5356;43.526;26.534;2023-01-27T06:57:03;98304.66;;;8.15;100.00
10618;BME280;5356;43.526;26.534;2023-01-27T06:59:29;98312.09;;;8.24;100.00
10618;BME280;5356;43.526;26.534;2023-01-27T07:01:54;98310.34;;;8.18;100.00
10618;BME280;5356;43.526;26.534;2023-01-27T07:04:20;98315.53;;;8.25;100.00
10618;BME280;5356;43.526;26.534;2023-01-27T07:06:46;98305.72;;;8.25;100.00
10618;BME280;5356;43.526;26.534;2023-01-27T07:09:11;98315.75;;;8.23;100.00
10618;BME280;5356;43.526;26.534;2023-01-27T07:11:36;98323.25;;;8.26;100.00
10618;BME280;5356;43.526;26.534;2023-01-27T07:14:02;98324.88;;;8.27;100.00
10618;BME280;5356;43.526;26.534;2023-01-27T07:16:27;98316.13;;;8.27;100.00
10618;BME280;5356;43.526;26.534;2023-01-27T07:18:53;98310.22;;;8.25;100.00
10618;BME280;5356;43.526;26.534;2023-01-27T07:21:18;98302.28;;;8.25;100.00
10618;BME280;5356;43.526;26.534;2023-01-27T07:23:44;98313.94;;;8.24;100.00
10618;BME280;5356;43.526;26.534;2023-01-27T07:26:09;98312.16;;;8.18;100.00
10618;BME280;5356;43.526;26.534;2023-01-27T07:28:35;98312.16;;;8.18;100.00
10618;BME280;5356;43.526;26.534;2023-01-27T07:31:01;98313.34;;;8.22;100.00
10618;BME280;5356;43.526;26.534;2023-01-27T07:33:27;98304.13;;;8.24;100.00
10618;BME280;5356;43.526;26.534;2023-01-27T07:35:52;98304.13;;;8.24;100.00
10618;BME280;5356;43.526;26.534;2023-01-27T07:38:19;98312.22;;;8.29;100.00
10618;BME280;5356;43.526;26.534;2023-01-27T07:40:45;98307.72;;;8.30;100.00
10618;BME280;5356;43.526;26.534;2023-01-27T07:43:10;98315.44;;;8.31;100.00
10618;BME280;5356;43.526;26.534;2023-01-27T07:45:36;98309.22;;;8.38;100.00
10618;BME280;5356;43.526;26.534;2023-01-27T07:48:03;98312.28;;;8.41;100.00
10618;BME280;5356;43.526;26.534;2023-01-27T07:50:29;98314.94;;;8.41;100.00
10618;BME280;5356;43.526;26.534;2023-01-27T07:53:01;98311.31;;;8.36;100.00
10618;BME280;5356;43.526;26.534;2023-01-27T07:55:28;98310.63;;;8.40;100.00
10618;BME280;5356;43.526;26.534;2023-01-27T07:57:53;98305.91;;;8.42;100.00
10618;BME280;5356;43.526;26.534;2023-01-27T08:00:20;98305.75;;;8.37;100.00
10618;BME280;5356;43.526;26.534;2023-01-27T08:02:53;98299.22;;;8.40;100.00
10618;BME280;5356;43.526;26.534;2023-01-27T08:05:19;98300.97;;;8.46;100.00
10618;BME280;5356;43.526;26.534;2023-01-27T08:07:45;98298.91;;;8.48;100.00
10618;BME280;5356;43.526;26.534;2023-01-27T08:10:11;98285.16;;;8.51;100.00
10618;BME280;5356;43.526;26.534;2023-01-27T08:12:37;98289.19;;;8.42;100.00
10618;BME280;5356;43.526;26.534;2023-01-27T08:15:03;98284.13;;;8.52;100.00
10618;BME280;5356;43.526;26.534;2023-01-27T08:17:29;98280.78;;;8.57;100.00
10618;BME280;5356;43.526;26.534;2023-01-27T08:19:54;98282.31;;;8.64;100.00
10618;BME280;5356;43.526;26.534;2023-01-27T08:22:20;98280.25;;;8.66;100.00
10618;BME280;5356;43.526;26.534;2023-01-27T08:24:46;98266.38;;;8.64;100.00
10618;BME280;5356;43.526;26.534;2023-01-27T08:27:11;98274.22;;;8.59;100.00
10618;BME280;5356;43.526;26.534;2023-01-27T08:29:37;98262.47;;;8.55;100.00
10618;BME280;5356;43.526;26.534;2023-01-27T08:32:02;98260.94;;;8.47;100.00
10618;BME280;5356;43.526;26.534;2023-01-27T08:34:28;98263.34;;;8.49;100.00
10618;BME280;5356;43.526;26.534;2023-01-27T08:36:53;98260.69;;;8.49;100.00
10618;BME280;5356;43.526;26.534;2023-01-27T08:39:19;98257.94;;;8.44;100.00
10618;BME280;5356;43.526;26.534;2023-01-27T08:41:44;98261.59;;;8.43;100.00
10618;BME280;5356;43.526;26.534;2023-01-27T08:44:10;98255.75;;;8.41;100.00
10618;BME280;5356;43.526;26.534;2023-01-27T08:46:35;98248.59;;;8.41;100.00
10618;BME280;5356;43.526;26.534;2023-01-27T08:49:01;98251.72;;;8.50;100.00
10618;BME280;5356;43.526;26.534;2023-01-27T08:51:26;98254.91;;;8.40;100.00
10618;BME280;5356;43.526;26.534;2023-01-27T08:53:52;98250.94;;;8.19;100.00
10618;BME280;5356;43.526;26.534;2023-01-27T08:56:17;98247.97;;;7.97;100.00
10618;BME280;5356;43.526;26.534;2023-01-27T08:58:43;98258.09;;;7.88;100.00
10618;BME280;5356;43.526;26.534;2023-01-27T09:01:12;98252.44;;;7.85;100.00
10618;BME280;5356;43.526;26.534;2023-01-27T09:03:37;98257.38;;;7.81;100.00
10618;BME280;5356;43.526;26.534;2023-01-27T09:06:03;98263.00;;;7.73;100.00
10618;BME280;5356;43.526;26.534;2023-01-27T09:08:30;98262.13;;;7.61;100.00
10618;BME280;5356;43.526;26.534;2023-01-27T09:10:56;98268.50;;;7.72;100.00
10618;BME280;5356;43.526;26.534;2023-01-27T09:13:21;98267.56;;;7.66;100.00
10618;BME280;5356;43.526;26.534;2023-01-27T09:15:49;98268.88;;;7.75;100.00
10618;BME280;5356;43.526;26.534;2023-01-27T09:18:15;98262.56;;;7.76;100.00
10618;BME280;5356;43.526;26.534;2023-01-27T09:20:40;98253.72;;;7.64;100.00
10618;BME280;5356;43.526;26.534;2023-01-27T09:23:06;98249.16;;;7.53;100.00
10618;BME280;5356;43.526;26.534;2023-01-27T09:25:32;98249.91;;;7.60;100.00
10618;BME280;5356;43.526;26.534;2023-01-27T09:27:58;98241.81;;;7.55;100.00
10618;BME280;5356;43.526;26.534;2023-01-27T09:30:25;98248.56;;;7.39;100.00
10618;BME280;5356;43.526;26.534;2023-01-27T09:32:51;98251.84;;;7.34;100.00
10618;BME280;5356;43.526;26.534;2023-01-27T09:35:17;98250.25;;;7.33;100.00
10618;BME280;5356;43.526;26.534;2023-01-27T09:37:52;98254.44;;;7.23;100.00
10618;BME280;5356;43.526;26.534;2023-01-27T09:40:31;98257.81;;;7.30;100.00
10618;BME280;5356;43.526;26.534;2023-01-27T09:43:42;98254.66;;;7.39;100.00
10618;BME280;5356;43.526;26.534;2023-01-27T09:46:07;98231.69;;;7.33;100.00
10618;BME280;5356;43.526;26.534;2023-01-27T09:51:30;98245.56;;;7.47;100.00
10618;BME280;5356;43.526;26.534;2023-01-27T09:57:20;98243.00;;;7.40;100.00
10618;BME280;5356;43.526;26.534;2023-01-27T10:02:52;98231.81;;;7.57;100.00
10618;BME280;5356;43.526;26.534;2023-01-27T10:08:26;98235.13;;;7.52;100.00
10618;BME280;5356;43.526;26.534;2023-01-27T10:13:45;98222.06;;;7.39;100.00
10618;BME280;5356;43.526;26.534;2023-01-27T10:16:27;98226.97;;;7.35;100.00
10618;BME280;5356;43.526;26.534;2023-01-27T10:19:03;98225.91;;;7.25;100.00
10618;BME280;5356;43.526;26.534;2023-01-27T10:24:48;98223.16;;;7.13;100.00
10618;BME280;5356;43.526;26.534;2023-01-27T10:27:15;98216.69;;;7.09;100.00
10618;BME280;5356;43.526;26.534;2023-01-27T10:29:46;98198.00;;;7.04;100.00
10618;BME280;5356;43.526;26.534;2023-01-27T10:35:18;98196.38;;;7.21;100.00
10618;BME280;5356;43.526;26.534;2023-01-27T10:43:47;98193.38;;;7.17;100.00
10618;BME280;5356;43.526;26.534;2023-01-27T10:51:25;98185.50;;;6.74;100.00
10618;BME280;5356;43.526;26.534;2023-01-27T10:54:17;98169.84;;;6.54;100.00
10618;BME280;5356;43.526;26.534;2023-01-27T10:56:55;98181.69;;;6.45;100.00
10618;BME280;5356;43.526;26.534;2023-01-27T10:59:52;98170.03;;;6.52;100.00
10618;BME280;5356;43.526;26.534;2023-01-27T11:02:30;98164.22;;;6.44;100.00
10618;BME280;5356;43.526;26.534;2023-01-27T11:05:07;98162.97;;;6.46;100.00
10618;BME280;5356;43.526;26.534;2023-01-27T11:08:02;98146.88;;;6.48;100.00
10618;BME280;5356;43.526;26.534;2023-01-27T11:10:34;98137.78;;;6.62;100.00
10618;BME280;5356;43.526;26.534;2023-01-27T11:13:00;98136.53;;;6.65;100.00
10618;BME280;5356;43.526;26.534;2023-01-27T11:15:33;98119.63;;;6.47;100.00
10618;BME280;5356;43.526;26.534;2023-01-27T11:20:41;98130.00;;;6.49;100.00
10618;BME280;5356;43.526;26.534;2023-01-27T11:23:17;98124.84;;;6.54;100.00
10618;BME280;5356;43.526;26.534;2023-01-27T11:31:28;98114.41;;;6.59;100.00
10618;BME280;5356;43.526;26.534;2023-01-27T11:36:28;98108.00;;;6.30;100.00
10618;BME280;5356;43.526;26.534;2023-01-27T11:38:55;98108.81;;;6.30;100.00
10618;BME280;5356;43.526;26.534;2023-01-27T11:41:36;98102.63;;;6.18;100.00
10618;BME280;5356;43.526;26.534;2023-01-27T11:44:06;98116.56;;;6.07;100.00
10618;BME280;5356;43.526;26.534;2023-01-27T11:46:37;98104.03;;;5.96;100.00
10618;BME280;5356;43.526;26.534;2023-01-27T11:49:02;98110.13;;;5.96;100.00
10618;BME280;5356;43.526;26.534;2023-01-27T11:51:37;98103.03;;;5.90;100.00
10618;BME280;5356;43.526;26.534;2023-01-27T11:54:25;98103.03;;;5.90;100.00
10618;BME280;5356;43.526;26.534;2023-01-27T11:56:52;98099.59;;;5.90;100.00
10618;BME280;5356;43.526;26.534;2023-01-27T12:01:58;98100.66;;;5.82;100.00
10618;BME280;5356;43.526;26.534;2023-01-27T12:04:48;98110.16;;;5.65;100.00
10618;BME280;5356;43.526;26.534;2023-01-27T12:10:31;98110.97;;;5.65;100.00
10618;BME280;5356;43.526;26.534;2023-01-27T12:13:00;98109.53;;;5.62;100.00
10618;BME280;5356;43.526;26.534;2023-01-27T12:15:32;98119.13;;;5.63;100.00
10618;BME280;5356;43.526;26.534;2023-01-27T12:18:17;98122.81;;;5.56;100.00
10618;BME280;5356;43.526;26.534;2023-01-27T12:20:48;98122.19;;;5.60;100.00
10618;BME280;5356;43.526;26.534;2023-01-27T12:23:52;98122.00;;;5.55;100.00
10618;BME280;5356;43.526;26.534;2023-01-27T12:26:35;98128.53;;;5.53;100.00
10618;BME280;5356;43.526;26.534;2023-01-27T12:29:14;98131.13;;;5.59;100.00
10618;BME280;5356;43.526;26.534;2023-01-27T12:31:49;98136.81;;;5.56;100.00
10618;BME280;5356;43.526;26.534;2023-01-27T12:36:44;98142.78;;;5.45;100.00
10618;BME280;5356;43.526;26.534;2023-01-27T12:39:26;98130.38;;;5.46;100.00
10618;BME280;5356;43.526;26.534;2023-01-27T12:41:54;98135.03;;;5.50;100.00
10618;BME280;5356;43.526;26.534;2023-01-27T12:44:20;98135.09;;;5.37;100.00
10618;BME280;5356;43.526;26.534;2023-01-27T12:49:20;98151.97;;;5.36;100.00
10618;BME280;5356;43.526;26.534;2023-01-27T12:51:55;98148.28;;;5.44;100.00
10618;BME280;5356;43.526;26.534;2023-01-27T12:54:26;98146.88;;;5.41;100.00
10618;BME280;5356;43.526;26.534;2023-01-27T12:56:53;98152.97;;;5.35;100.00
10618;BME280;5356;43.526;26.534;2023-01-27T12:59:22;98156.69;;;5.27;100.00
10618;BME280;5356;43.526;26.534;2023-01-27T13:04:42;98149.47;;;5.09;100.00
10618;BME280;5356;43.526;26.534;2023-01-27T13:07:14;98148.09;;;5.00;100.00
10618;BME280;5356;43.526;26.534;2023-01-27T13:12:26;98148.84;;;5.14;100.00
10618;BME280;5356;43.526;26.534;2023-01-27T13:14:57;98146.19;;;5.14;100.00
10618;BME280;5356;43.526;26.534;2023-01-27T13:18:26;98142.16;;;5.11;100.00
10618;BME280;5356;43.526;26.534;2023-01-27T13:20:44;98141.34;;;5.11;100.00
10618;BME280;5356;43.526;26.534;2023-01-27T13:23:29;98151.09;;;5.10;100.00
10618;BME280;5356;43.526;26.534;2023-01-27T13:28:33;98147.09;;;5.01;100.00
10618;BME280;5356;43.526;26.534;2023-01-27T13:31:06;98150.56;;;4.88;100.00
10618;BME280;5356;43.526;26.534;2023-01-27T13:33:42;98153.25;;;4.82;100.00
10618;BME280;5356;43.526;26.534;2023-01-27T13:41:40;98145.72;;;4.85;100.00
10618;BME280;5356;43.526;26.534;2023-01-27T13:44:31;98148.75;;;4.82;100.00
10618;BME280;5356;43.526;26.534;2023-01-27T13:47:03;98143.28;;;4.77;100.00
10618;BME280;5356;43.526;26.534;2023-01-27T13:49:40;98141.91;;;4.61;100.00
10618;BME280;5356;43.526;26.534;2023-01-27T13:52:10;98153.28;;;4.62;100.00
10618;BME280;5356;43.526;26.534;2023-01-27T13:54:36;98153.91;;;4.57;100.00
10618;BME280;5356;43.526;26.534;2023-01-27T14:00:17;98153.28;;;4.62;100.00
10618;BME280;5356;43.526;26.534;2023-01-27T14:03:13;98155.72;;;4.50;100.00
10618;BME280;5356;43.526;26.534;2023-01-27T14:06:00;98160.63;;;4.46;100.00
10618;BME280;5356;43.526;26.534;2023-01-27T14:08:52;98164.69;;;4.36;100.00
10618;BME280;5356;43.526;26.534;2023-01-27T14:11:35;98155.16;;;4.35;100.00
10618;BME280;5356;43.526;26.534;2023-01-27T14:14:40;98142.38;;;4.38;100.00
10618;BME280;5356;43.526;26.534;2023-01-27T14:20:20;98149.69;;;4.23;100.00
10618;BME280;5356;43.526;26.534;2023-01-27T14:25:24;98154.97;;;4.23;100.00
10618;BME280;5356;43.526;26.534;2023-01-27T14:28:07;98166.72;;;4.20;100.00
10618;BME280;5356;43.526;26.534;2023-01-27T14:30:42;98182.16;;;4.17;100.00
10618;BME280;5356;43.526;26.534;2023-01-27T14:36:21;98179.50;;;4.03;100.00
10618;BME280;5356;43.526;26.534;2023-01-27T14:39:12;98170.41;;;3.99;100.00